Time;durP1;ratioP1;P1;durP2;ratioP2;P2;SDS_P1;SDS_P2;PMS_P1;PMS_P2;Temp;Humidity;BMP_temperature;BMP_pressure;BME280_temperature;BME280_humidity;BME280_pressure;Samples;Min_cycle;Max_cycle;Signal;HPM_P1;HPM_P2
2024/02/16 00:01:05;;;;;;;5.40;2.58;;;10.60;99.90;;;;;;4965184;28;20137;-77
2024/02/16 00:03:31;;;;;;;5.30;3.25;;;10.50;99.90;;;;;;4965686;28;20039;-79
2024/02/16 00:05:58;;;;;;;4.10;2.45;;;10.50;99.90;;;;;;4967254;28;20538;-78
2024/02/16 00:08:25;;;;;;;5.63;2.75;;;10.50;99.90;;;;;;4935730;28;20035;-78
2024/02/16 00:10:51;;;;;;;4.25;3.05;;;10.50;99.90;;;;;;4965885;28;20040;-78
2024/02/16 00:13:17;;;;;;;4.32;2.30;;;10.50;99.90;;;;;;4965320;28;20027;-78
2024/02/16 00:15:43;;;;;;;3.63;2.60;;;10.50;99.90;;;;;;4953053;28;20035;-75
2024/02/16 00:18:10;;;;;;;5.88;3.58;;;10.50;99.90;;;;;;4936446;28;20039;-75
2024/02/16 00:20:36;;;;;;;5.68;2.95;;;10.50;99.90;;;;;;4936109;28;20395;-78
2024/02/16 00:23:03;;;;;;;4.18;2.83;;;10.50;99.90;;;;;;4967238;28;20023;-75
2024/02/16 00:25:30;;;;;;;4.28;2.85;;;10.50;99.90;;;;;;4951402;28;20031;-77
2024/02/16 00:27:56;;;;;;;6.05;3.35;;;10.50;99.90;;;;;;4966618;28;20027;-77
2024/02/16 00:30:22;;;;;;;3.88;2.70;;;10.50;99.90;;;;;;4936670;28;20051;-77
2024/02/16 00:32:48;;;;;;;4.35;2.40;;;10.50;99.90;;;;;;4967386;28;20019;-78
2024/02/16 00:35:19;;;;;;;4.65;2.50;;;10.50;99.90;;;;;;4937794;28;20052;-78
2024/02/16 00:37:45;;;;;;;4.68;2.50;;;10.40;99.90;;;;;;4937257;28;20024;-78
2024/02/16 00:40:12;;;;;;;4.35;2.60;;;10.40;99.90;;;;;;4936766;28;20477;-78
2024/02/16 00:42:38;;;;;;;5.80;2.72;;;10.40;99.90;;;;;;4949414;28;20094;-75
2024/02/16 00:45:05;;;;;;;5.18;2.30;;;10.30;99.90;;;;;;4950261;28;20362;-79
2024/02/16 00:47:31;;;;;;;4.63;2.50;;;10.30;99.90;;;;;;4968066;28;20038;-79
2024/02/16 00:49:58;;;;;;;5.05;2.92;;;10.30;99.90;;;;;;4934779;28;20027;-78
2024/02/16 00:52:25;;;;;;;3.53;2.22;;;10.30;99.90;;;;;;4982019;28;20112;-75
2024/02/16 00:54:51;;;;;;;3.25;2.20;;;10.30;99.90;;;;;;4947759;28;20035;-78
2024/02/16 00:57:17;;;;;;;4.40;2.38;;;10.20;99.90;;;;;;4981803;28;20046;-78
2024/02/16 00:59:43;;;;;;;4.63;2.15;;;10.20;99.90;;;;;;4951647;28;20051;-78
2024/02/16 01:02:11;;;;;;;4.68;2.20;;;10.20;99.90;;;;;;4982712;28;20053;-77
2024/02/16 01:04:37;;;;;;;4.10;2.63;;;10.20;99.90;;;;;;4967528;28;20019;-78
2024/02/16 01:07:04;;;;;;;6.63;3.03;;;10.20;99.90;;;;;;4921885;28;20356;-78
2024/02/16 01:09:31;;;;;;;3.60;2.95;;;10.20;99.90;;;;;;4945700;28;20027;-78
2024/02/16 01:11:58;;;;;;;5.07;2.75;;;10.20;99.90;;;;;;4965229;28;20050;-75
2024/02/16 01:14:24;;;;;;;7.15;3.13;;;10.20;99.90;;;;;;4934149;28;20019;-75
2024/02/16 01:16:50;;;;;;;5.30;3.42;;;10.20;99.90;;;;;;4967328;28;20058;-77
2024/02/16 01:19:17;;;;;;;5.55;2.22;;;10.20;99.90;;;;;;4935989;28;20036;-78
2024/02/16 01:21:47;;;;;;;4.75;3.15;;;10.20;99.90;;;;;;4965575;28;20031;-78
2024/02/16 01:24:13;;;;;;;5.20;3.53;;;10.20;99.90;;;;;;4934230;28;20435;-78
2024/02/16 01:26:39;;;;;;;5.65;3.15;;;10.20;99.90;;;;;;4934962;28;20081;-76
2024/02/16 01:29:06;;;;;;;6.05;3.40;;;10.20;99.90;;;;;;4951820;28;20051;-75
2024/02/16 01:31:33;;;;;;;4.45;3.20;;;10.20;99.90;;;;;;4964027;28;20047;-77
2024/02/16 01:33:59;;;;;;;4.97;3.03;;;10.20;99.90;;;;;;4934725;28;20032;-78
2024/02/16 01:36:25;;;;;;;4.75;2.53;;;10.10;99.90;;;;;;4965106;28;20039;-78
2024/02/16 01:38:52;;;;;;;5.22;2.47;;;10.10;99.90;;;;;;4983073;28;20054;-78
2024/02/16 01:41:18;;;;;;;3.78;2.70;;;10.10;99.90;;;;;;4951093;28;20027;-77
2024/02/16 01:43:45;;;;;;;5.03;2.90;;;10.10;99.90;;;;;;4935241;28;20047;-78
2024/02/16 01:46:11;;;;;;;3.00;1.98;;;10.10;99.90;;;;;;4948273;28;20062;-77
2024/02/16 01:48:39;;;;;;;7.00;2.85;;;10.10;99.90;;;;;;4966079;28;20027;-76
2024/02/16 01:51:08;;;;;;;4.50;2.63;;;10.00;99.90;;;;;;4969146;28;20046;-78
2024/02/16 01:53:36;;;;;;;3.92;2.55;;;10.00;99.90;;;;;;4939138;28;20062;-78
2024/02/16 01:56:03;;;;;;;3.28;2.45;;;10.00;99.90;;;;;;4969378;28;20035;-78
2024/02/16 01:58:30;;;;;;;5.78;2.47;;;10.00;99.90;;;;;;4938476;28;20623;-77
2024/02/16 02:00:56;;;;;;;3.63;2.70;;;10.00;99.90;;;;;;4936157;28;20031;-76
2024/02/16 02:03:22;;;;;;;4.10;2.80;;;9.90;99.90;;;;;;4968949;28;20050;-78
2024/02/16 02:05:50;;;;;;;2.85;2.35;;;10.00;99.90;;;;;;4968609;28;20023;-77
2024/02/16 02:08:17;;;;;;;7.05;2.97;;;9.90;99.90;;;;;;4937799;28;20040;-78
2024/02/16 02:10:43;;;;;;;4.78;2.88;;;9.90;99.90;;;;;;4954444;28;20054;-75
2024/02/16 02:13:10;;;;;;;4.68;2.85;;;10.00;99.90;;;;;;4951363;28;20039;-75
2024/02/16 02:15:36;;;;;;;3.88;2.60;;;10.00;99.90;;;;;;4954470;28;20426;-77
2024/02/16 02:18:02;;;;;;;2.90;2.28;;;10.00;99.90;;;;;;4950108;28;20050;-77
2024/02/16 02:20:29;;;;;;;4.88;3.60;;;9.90;99.90;;;;;;4952479;28;20383;-77
2024/02/16 02:22:55;;;;;;;3.75;2.67;;;9.90;99.90;;;;;;4968560;28;20046;-77
2024/02/16 02:25:21;;;;;;;4.80;2.88;;;9.90;99.90;;;;;;4970203;28;20386;-74
2024/02/16 02:27:47;;;;;;;3.05;2.47;;;9.90;99.90;;;;;;4937299;28;20027;-76
2024/02/16 02:30:14;;;;;;;3.28;2.55;;;9.90;99.90;;;;;;4968210;28;20553;-77
2024/02/16 02:32:42;;;;;;;3.15;2.50;;;9.90;99.90;;;;;;4954133;28;20048;-78
2024/02/16 02:35:09;;;;;;;5.03;2.90;;;9.80;99.90;;;;;;4953804;28;20562;-75
2024/02/16 02:37:35;;;;;;;4.60;3.20;;;9.80;99.90;;;;;;4936714;28;20622;-76
2024/02/16 02:40:02;;;;;;;6.60;2.88;;;9.80;99.90;;;;;;4936686;28;20031;-77
2024/02/16 02:42:29;;;;;;;4.75;2.88;;;9.80;99.90;;;;;;4935081;28;20471;-78
2024/02/16 02:44:55;;;;;;;3.83;2.50;;;9.80;99.90;;;;;;4938262;28;20023;-77
2024/02/16 02:47:21;;;;;;;3.42;2.40;;;9.90;99.90;;;;;;4933170;28;20035;-77
2024/02/16 02:49:48;;;;;;;4.75;2.65;;;10.00;99.90;;;;;;4966585;28;20046;-78
2024/02/16 02:52:14;;;;;;;3.42;2.88;;;10.00;99.90;;;;;;4969519;28;20061;-77
2024/02/16 02:54:40;;;;;;;3.47;2.78;;;10.00;99.90;;;;;;4950909;28;20486;-78
2024/02/16 02:57:06;;;;;;;4.93;2.95;;;10.00;99.90;;;;;;4933711;28;20054;-74
2024/02/16 02:59:33;;;;;;;4.57;3.03;;;10.00;99.90;;;;;;4968743;28;20055;-77
2024/02/16 03:01:59;;;;;;;4.30;2.90;;;9.90;99.90;;;;;;4938475;28;20035;-78
2024/02/16 03:04:25;;;;;;;4.90;3.28;;;9.90;99.90;;;;;;4937231;28;20030;-78
2024/02/16 03:06:52;;;;;;;3.90;2.47;;;9.90;99.90;;;;;;4968471;28;20038;-77
2024/02/16 03:09:19;;;;;;;3.33;2.22;;;9.90;99.90;;;;;;4938648;28;20349;-74
2024/02/16 03:11:45;;;;;;;4.85;2.65;;;9.90;99.90;;;;;;4968883;28;20063;-77
2024/02/16 03:14:11;;;;;;;4.90;2.63;;;10.00;99.90;;;;;;4968142;28;20035;-78
2024/02/16 03:16:38;;;;;;;5.53;2.63;;;10.00;99.90;;;;;;4969520;28;20432;-78
2024/02/16 03:19:08;;;;;;;6.07;2.83;;;10.10;99.90;;;;;;4953490;28;20328;-77
2024/02/16 03:21:35;;;;;;;5.35;2.53;;;10.10;99.90;;;;;;4951807;28;20036;-78
2024/02/16 03:24:03;;;;;;;6.95;3.88;;;10.10;99.90;;;;;;4950913;28;20559;-74
2024/02/16 03:26:30;;;;;;;4.35;3.80;;;10.20;99.90;;;;;;4934899;28;20035;-77
2024/02/16 03:28:57;;;;;;;3.28;2.65;;;10.20;99.90;;;;;;4966449;28;20030;-78
2024/02/16 03:31:24;;;;;;;7.15;3.08;;;10.20;99.90;;;;;;4965434;28;20050;-76
2024/02/16 03:33:51;;;;;;;5.03;2.97;;;10.20;99.90;;;;;;4951533;28;20043;-78
2024/02/16 03:36:19;;;;;;;3.95;2.30;;;10.20;99.90;;;;;;4936322;28;20054;-75
2024/02/16 03:38:47;;;;;;;3.75;2.67;;;10.30;99.90;;;;;;4966585;28;20042;-74
2024/02/16 03:41:25;;;;;;;5.20;3.33;;;10.30;99.90;;;;;;4966011;28;20031;-75
2024/02/16 03:43:53;;;;;;;4.95;2.60;;;10.30;99.90;;;;;;4951136;28;20356;-78
2024/02/16 03:46:19;;;;;;;3.45;2.70;;;10.20;99.90;;;;;;4936431;28;20074;-77
2024/02/16 03:48:45;;;;;;;4.97;3.10;;;10.20;99.90;;;;;;4936178;28;20054;-77
2024/02/16 03:51:12;;;;;;;4.25;2.70;;;10.10;99.90;;;;;;4967421;28;20319;-77
2024/02/16 03:53:39;;;;;;;3.47;3.17;;;10.10;99.90;;;;;;4936937;28;20023;-76
2024/02/16 03:56:05;;;;;;;3.42;2.50;;;10.10;99.90;;;;;;4966878;28;20050;-77
2024/02/16 03:58:32;;;;;;;5.75;3.50;;;10.00;99.90;;;;;;4951529;28;20039;-77
2024/02/16 04:00:58;;;;;;;4.43;3.58;;;10.00;99.90;;;;;;4966629;28;20544;-77
2024/02/16 04:03:25;;;;;;;3.90;2.85;;;10.00;99.90;;;;;;4949059;28;20039;-77
2024/02/16 04:05:52;;;;;;;5.90;3.25;;;10.00;99.90;;;;;;4965787;28;20040;-77
2024/02/16 04:08:19;;;;;;;4.35;2.97;;;10.10;99.90;;;;;;4965529;28;20124;-78
2024/02/16 04:10:46;;;;;;;4.32;3.28;;;10.00;99.90;;;;;;4951540;28;20043;-77
2024/02/16 04:13:12;;;;;;;4.20;2.90;;;10.00;99.90;;;;;;4965039;28;20027;-77
2024/02/16 04:15:38;;;;;;;4.57;3.10;;;10.00;99.90;;;;;;4964078;28;20043;-74
2024/02/16 04:18:05;;;;;;;3.78;2.83;;;10.00;99.90;;;;;;4967850;28;20028;-77
2024/02/16 04:20:31;;;;;;;3.65;2.50;;;10.00;99.90;;;;;;4968546;28;20039;-76
2024/02/16 04:22:57;;;;;;;5.03;3.25;;;10.00;99.90;;;;;;4966823;28;20482;-78
2024/02/16 04:25:24;;;;;;;4.20;2.95;;;10.00;99.90;;;;;;4952653;28;20055;-77
2024/02/16 04:27:50;;;;;;;4.22;2.97;;;10.00;99.90;;;;;;4950068;28;20501;-74
2024/02/16 04:30:17;;;;;;;3.90;2.40;;;10.00;99.90;;;;;;4965957;28;20027;-77
2024/02/16 04:32:43;;;;;;;4.32;1.83;;;9.90;99.90;;;;;;4934811;28;20471;-78
2024/02/16 04:35:12;;;;;;;3.50;2.38;;;9.90;99.90;;;;;;4964687;28;20455;-77
2024/02/16 04:37:41;;;;;;;3.50;1.88;;;9.90;99.90;;;;;;4934239;28;20042;-77
2024/02/16 04:40:08;;;;;;;3.63;2.25;;;9.90;99.90;;;;;;4950800;28;20046;-77
2024/02/16 04:42:34;;;;;;;3.40;2.90;;;9.90;99.90;;;;;;4964453;28;20385;-75
2024/02/16 04:45:01;;;;;;;2.50;2.05;;;9.90;99.90;;;;;;4935986;28;20050;-77
2024/02/16 04:47:28;;;;;;;3.70;2.42;;;9.80;99.90;;;;;;4964735;28;20046;-77
2024/02/16 04:49:54;;;;;;;4.30;2.33;;;9.80;99.90;;;;;;4950120;28;20379;-78
2024/02/16 04:52:21;;;;;;;3.92;2.65;;;9.80;99.90;;;;;;4951923;28;20038;-75
2024/02/16 04:54:47;;;;;;;4.20;2.97;;;9.80;99.90;;;;;;4933637;28;20043;-75
2024/02/16 04:57:13;;;;;;;4.05;2.72;;;9.80;99.90;;;;;;4967890;28;20047;-78
2024/02/16 04:59:39;;;;;;;3.53;2.45;;;9.80;99.90;;;;;;4965102;28;20051;-77
2024/02/16 05:02:06;;;;;;;3.22;2.60;;;9.80;99.90;;;;;;4962356;28;20027;-77
2024/02/16 05:04:33;;;;;;;6.05;3.92;;;9.80;99.90;;;;;;4964353;28;20043;-76
2024/02/16 05:06:59;;;;;;;3.47;3.17;;;9.80;99.90;;;;;;4947791;28;20474;-77
2024/02/16 05:09:26;;;;;;;3.67;2.83;;;9.90;99.90;;;;;;4965541;28;20090;-77
2024/02/16 05:11:52;;;;;;;3.78;1.92;;;9.90;99.90;;;;;;4963340;28;20478;-74
2024/02/16 05:14:19;;;;;;;4.95;3.15;;;9.90;99.90;;;;;;4929705;28;20054;-74
2024/02/16 05:16:45;;;;;;;4.63;2.83;;;9.90;99.90;;;;;;4932644;28;20028;-75
2024/02/16 05:19:12;;;;;;;4.70;3.10;;;9.90;99.90;;;;;;4949256;28;20055;-77
2024/02/16 05:21:38;;;;;;;3.33;2.83;;;9.90;99.90;;;;;;4945216;28;20046;-76
2024/02/16 05:24:05;;;;;;;4.38;2.80;;;9.90;99.90;;;;;;4962322;28;20035;-76
2024/02/16 05:26:31;;;;;;;2.92;2.63;;;9.90;99.90;;;;;;4951986;28;20039;-76
2024/02/16 05:28:58;;;;;;;4.63;3.00;;;9.90;99.90;;;;;;4948746;28;20051;-75
2024/02/16 05:31:24;;;;;;;3.85;2.35;;;9.90;99.90;;;;;;4934614;28;20043;-78
2024/02/16 05:33:51;;;;;;;4.03;2.33;;;9.90;99.90;;;;;;4950064;28;20050;-77
2024/02/16 05:36:20;;;;;;;4.03;2.60;;;9.90;99.90;;;;;;4934737;28;20039;-74
2024/02/16 05:38:47;;;;;;;3.38;2.75;;;9.90;99.90;;;;;;4964860;28;20035;-76
2024/02/16 05:41:13;;;;;;;4.45;3.10;;;9.90;99.90;;;;;;4948610;28;20477;-73
2024/02/16 05:43:43;;;;;;;3.97;2.50;;;9.90;99.90;;;;;;4964197;28;20051;-76
2024/02/16 05:46:13;;;;;;;4.65;2.28;;;9.90;99.90;;;;;;4936047;28;20042;-76
2024/02/16 05:48:40;;;;;;;3.63;2.80;;;9.90;99.90;;;;;;4935197;28;20027;-76
2024/02/16 05:51:07;;;;;;;3.67;2.40;;;9.90;99.90;;;;;;4964613;28;20035;-76
2024/02/16 05:53:33;;;;;;;4.95;2.90;;;9.90;99.90;;;;;;4934322;28;20581;-77
2024/02/16 05:56:00;;;;;;;4.50;2.50;;;9.90;99.90;;;;;;4935345;28;20035;-76
2024/02/16 05:58:27;;;;;;;4.60;3.50;;;9.90;99.90;;;;;;4949663;28;20046;-76
2024/02/16 06:00:54;;;;;;;3.30;2.60;;;9.90;99.90;;;;;;4963458;28;20035;-75
2024/02/16 06:03:21;;;;;;;4.15;3.42;;;9.90;99.90;;;;;;4949779;28;20364;-75
2024/02/16 06:05:48;;;;;;;4.93;2.80;;;9.90;99.90;;;;;;4964974;28;20039;-77
2024/02/16 06:08:17;;;;;;;3.83;2.53;;;9.90;99.90;;;;;;4933486;28;20053;-73
2024/02/16 06:10:44;;;;;;;3.40;2.92;;;9.90;99.90;;;;;;4949585;28;20046;-77
2024/02/16 06:13:11;;;;;;;6.03;3.70;;;9.90;99.90;;;;;;4930723;28;21117;-74
2024/02/16 06:15:37;;;;;;;4.97;3.97;;;9.90;99.90;;;;;;4964700;28;20035;-77
2024/02/16 06:18:04;;;;;;;4.50;3.35;;;9.90;99.90;;;;;;4934482;28;20020;-77
2024/02/16 06:20:30;;;;;;;5.85;3.45;;;9.90;99.90;;;;;;4950092;28;20035;-77
2024/02/16 06:22:57;;;;;;;5.78;4.38;;;9.90;99.90;;;;;;4932475;28;20036;-77
2024/02/16 06:25:23;;;;;;;6.03;4.15;;;9.90;99.90;;;;;;4965066;28;20027;-76
2024/02/16 06:27:49;;;;;;;4.22;3.63;;;9.90;99.90;;;;;;4965423;28;20624;-78
2024/02/16 06:30:16;;;;;;;6.22;3.80;;;9.90;99.90;;;;;;4964261;28;20039;-76
2024/02/16 06:32:42;;;;;;;6.97;4.43;;;10.00;99.90;;;;;;4969710;28;20051;-77
2024/02/16 06:35:09;;;;;;;6.20;5.10;;;10.00;99.90;;;;;;4936618;28;20348;-76
2024/02/16 06:37:37;;;;;;;5.30;4.10;;;10.00;99.90;;;;;;4967262;28;20300;-77
2024/02/16 06:40:04;;;;;;;5.90;3.83;;;10.10;99.90;;;;;;4968036;28;20033;-77
2024/02/16 06:42:31;;;;;;;7.60;5.15;;;10.10;99.90;;;;;;4937635;28;20042;-77
2024/02/16 06:44:57;;;;;;;8.35;5.65;;;10.20;99.90;;;;;;4967403;28;20023;-78
2024/02/16 06:47:25;;;;;;;7.65;4.80;;;10.20;99.90;;;;;;4968947;28;20641;-76
2024/02/16 06:49:52;;;;;;;5.72;4.55;;;10.30;99.90;;;;;;4953342;28;20058;-77
2024/02/16 06:52:18;;;;;;;8.98;5.82;;;10.40;99.90;;;;;;4937032;28;20050;-74
2024/02/16 06:54:45;;;;;;;8.52;4.90;;;10.40;99.90;;;;;;4954488;28;20043;-79
2024/02/16 06:57:11;;;;;;;6.43;5.15;;;10.50;99.90;;;;;;4938012;28;20046;-79
2024/02/16 06:59:37;;;;;;;7.38;5.03;;;10.60;99.90;;;;;;4968645;28;20031;-78
2024/02/16 07:02:04;;;;;;;7.72;5.55;;;10.60;99.90;;;;;;4952147;28;20497;-78
2024/02/16 07:04:30;;;;;;;6.90;5.43;;;10.70;99.90;;;;;;4965967;28;20028;-78
2024/02/16 07:06:57;;;;;;;6.72;5.55;;;10.70;99.90;;;;;;4952217;28;20075;-76
2024/02/16 07:09:23;;;;;;;7.45;5.07;;;10.80;99.90;;;;;;4982436;28;20455;-76
2024/02/16 07:11:50;;;;;;;7.90;5.38;;;10.90;99.90;;;;;;4969657;28;20032;-76
2024/02/16 07:14:17;;;;;;;7.80;5.22;;;10.90;99.90;;;;;;4951149;28;20051;-79
2024/02/16 07:16:43;;;;;;;8.25;5.43;;;11.00;99.90;;;;;;4936113;28;20445;-76
2024/02/16 07:19:10;;;;;;;8.20;5.10;;;11.00;99.90;;;;;;4965204;28;20039;-74
2024/02/16 07:21:36;;;;;;;7.28;5.80;;;11.10;99.90;;;;;;4983137;28;20040;-75
2024/02/16 07:24:03;;;;;;;7.03;5.35;;;11.10;99.90;;;;;;4951629;28;20032;-75
2024/02/16 07:26:29;;;;;;;7.35;5.68;;;11.10;99.90;;;;;;4968761;28;20619;-76
2024/02/16 07:28:56;;;;;;;7.45;5.45;;;11.20;99.90;;;;;;4936797;28;20513;-76
2024/02/16 07:31:22;;;;;;;9.45;6.25;;;11.20;99.90;;;;;;4968550;28;20039;-76
2024/02/16 07:33:49;;;;;;;8.15;5.25;;;11.30;99.90;;;;;;4941917;28;20039;-75
2024/02/16 07:36:17;;;;;;;8.95;6.28;;;11.30;99.90;;;;;;4967693;28;20039;-76
2024/02/16 07:38:44;;;;;;;9.48;6.22;;;11.30;99.90;;;;;;4952207;28;20044;-76
2024/02/16 07:41:10;;;;;;;10.25;6.35;;;11.40;99.90;;;;;;4936616;28;20371;-76
2024/02/16 07:43:36;;;;;;;6.53;5.13;;;11.40;99.90;;;;;;4936323;28;20046;-76
2024/02/16 07:46:03;;;;;;;10.63;6.35;;;11.50;99.90;;;;;;4951041;28;20035;-76
2024/02/16 07:48:30;;;;;;;13.77;7.80;;;11.50;99.90;;;;;;4952667;28;20042;-75
2024/02/16 07:50:59;;;;;;;8.40;6.78;;;11.50;99.90;;;;;;4936669;28;20304;-75
2024/02/16 07:53:25;;;;;;;8.75;6.35;;;11.50;99.90;;;;;;4952891;28;20328;-76
2024/02/16 07:55:51;;;;;;;8.18;6.00;;;11.60;99.90;;;;;;4953185;28;20040;-76
2024/02/16 07:58:17;;;;;;;9.15;7.05;;;11.60;99.90;;;;;;4936349;28;20055;-76
2024/02/16 08:00:44;;;;;;;8.15;5.65;;;11.70;99.90;;;;;;4951844;28;20082;-73
2024/02/16 08:03:10;;;;;;;8.60;5.93;;;11.70;99.90;;;;;;4935234;28;20044;-74
2024/02/16 08:05:37;;;;;;;7.60;5.97;;;11.70;99.90;;;;;;4936293;28;20053;-76
2024/02/16 08:08:04;;;;;;;8.70;5.97;;;11.70;99.90;;;;;;4936118;28;20134;-76
2024/02/16 08:10:30;;;;;;;10.05;5.90;;;11.80;99.90;;;;;;4966730;28;20046;-75
2024/02/16 08:12:56;;;;;;;8.27;6.00;;;11.80;99.90;;;;;;4965832;28;20035;-76
2024/02/16 08:15:23;;;;;;;6.40;5.75;;;11.80;99.90;;;;;;4953298;28;20062;-75
2024/02/16 08:17:52;;;;;;;7.55;5.15;;;11.80;99.90;;;;;;4966428;28;20051;-77
2024/02/16 08:20:20;;;;;;;8.77;5.55;;;11.90;99.90;;;;;;4949788;28;20808;-77
2024/02/16 08:22:46;;;;;;;8.52;6.45;;;11.90;99.90;;;;;;4967352;28;20042;-76
2024/02/16 08:25:13;;;;;;;9.23;5.53;;;11.90;99.90;;;;;;4968003;28;20501;-77
2024/02/16 08:27:39;;;;;;;9.63;6.68;;;12.00;99.90;;;;;;4983540;28;20038;-76
2024/02/16 08:30:08;;;;;;;8.02;5.68;;;12.00;99.90;;;;;;4935195;28;20084;-79
2024/02/16 08:32:35;;;;;;;9.70;7.25;;;12.10;99.90;;;;;;4966018;28;20034;-72
2024/02/16 08:35:03;;;;;;;8.68;6.43;;;12.10;99.90;;;;;;4981509;28;20044;-74
2024/02/16 08:37:29;;;;;;;9.23;7.85;;;12.20;99.90;;;;;;4948631;28;20406;-77
2024/02/16 08:39:55;;;;;;;8.57;5.85;;;12.30;99.90;;;;;;4965797;28;20046;-74
2024/02/16 08:42:23;;;;;;;9.90;6.63;;;12.30;99.90;;;;;;4935385;28;20514;-73
2024/02/16 08:44:49;;;;;;;8.02;6.53;;;12.30;99.90;;;;;;4947624;28;20046;-75
2024/02/16 08:47:16;;;;;;;9.95;7.07;;;12.40;99.90;;;;;;4936659;28;20027;-77
2024/02/16 08:49:42;;;;;;;10.10;6.60;;;12.40;99.90;;;;;;4967431;28;20039;-76
2024/02/16 08:52:09;;;;;;;10.43;5.95;;;12.40;99.90;;;;;;4936846;28;20031;-75
2024/02/16 08:54:36;;;;;;;7.88;6.05;;;12.50;99.90;;;;;;4949234;28;20062;-77
2024/02/16 08:57:03;;;;;;;9.23;6.72;;;12.50;99.90;;;;;;4953109;28;20039;-78
2024/02/16 08:59:30;;;;;;;11.73;6.45;;;12.50;99.90;;;;;;4967873;28;20030;-77
2024/02/16 09:01:58;;;;;;;9.88;5.78;;;12.60;99.90;;;;;;4952808;28;20051;-76
2024/02/16 09:04:25;;;;;;;8.95;6.03;;;12.60;99.90;;;;;;4936329;28;20024;-74
2024/02/16 09:06:51;;;;;;;13.10;6.57;;;12.70;99.90;;;;;;4966813;28;20047;-73
2024/02/16 09:09:18;;;;;;;7.43;5.97;;;12.80;99.90;;;;;;4966545;28;20489;-76
2024/02/16 09:11:44;;;;;;;8.68;7.13;;;12.80;99.90;;;;;;4934745;28;20054;-77
2024/02/16 09:14:11;;;;;;;7.65;6.22;;;12.80;99.90;;;;;;4951413;28;20057;-73
2024/02/16 09:16:37;;;;;;;9.35;7.47;;;12.90;99.90;;;;;;4950281;28;20100;-77
2024/02/16 09:19:03;;;;;;;11.18;6.40;;;12.80;99.90;;;;;;4964962;28;20038;-75
2024/02/16 09:21:30;;;;;;;8.43;6.70;;;12.80;99.90;;;;;;4950591;28;20055;-76
2024/02/16 09:24:01;;;;;;;8.70;5.97;;;12.80;99.90;;;;;;4951042;28;20043;-75
2024/02/16 09:26:30;;;;;;;10.63;7.03;;;12.80;99.90;;;;;;4917316;28;20062;-77
2024/02/16 09:28:57;;;;;;;9.38;6.55;;;12.90;99.90;;;;;;4951439;28;20046;-74
2024/02/16 09:31:25;;;;;;;8.68;5.63;;;12.90;99.90;;;;;;4963901;28;20031;-78
2024/02/16 09:33:51;;;;;;;8.55;6.40;;;12.90;99.90;;;;;;4964537;28;20493;-77
2024/02/16 09:36:18;;;;;;;10.10;5.88;;;13.00;99.90;;;;;;4935404;28;20039;-76
2024/02/16 09:38:44;;;;;;;7.90;6.38;;;13.10;99.90;;;;;;4966359;28;20509;-74
2024/02/16 09:41:12;;;;;;;9.55;6.80;;;13.10;99.90;;;;;;4934829;28;20046;-74
2024/02/16 09:43:41;;;;;;;9.93;6.18;;;13.20;99.90;;;;;;4937533;28;20087;-73
2024/02/16 09:46:08;;;;;;;9.18;6.78;;;13.20;99.90;;;;;;4936971;28;20024;-76
2024/02/16 09:48:35;;;;;;;14.00;7.75;;;13.20;99.90;;;;;;4936212;28;20046;-76
2024/02/16 09:51:03;;;;;;;12.18;7.75;;;13.20;99.90;;;;;;4935800;28;20042;-76
2024/02/16 09:53:29;;;;;;;10.35;7.40;;;13.20;99.90;;;;;;4935779;28;20047;-77
2024/02/16 09:55:56;;;;;;;10.15;7.10;;;13.20;99.90;;;;;;4967686;28;20036;-76
2024/02/16 09:58:22;;;;;;;8.88;6.40;;;13.20;99.90;;;;;;4951037;28;20054;-77
2024/02/16 10:00:50;;;;;;;11.07;7.47;;;13.20;99.90;;;;;;4933117;28;20051;-77
2024/02/16 10:03:29;;;;;;;9.45;6.93;;;13.20;99.90;;;;;;4934273;28;20027;-76
2024/02/16 10:06:11;;;;;;;11.30;7.90;;;13.20;99.90;;;;;;4951291;28;20390;-80
2024/02/16 10:09:11;;;;;;;10.25;7.78;;;13.30;99.90;;;;;;4966966;28;20034;-76
2024/02/16 10:11:39;;;;;;;9.98;7.22;;;13.30;99.90;;;;;;4965162;28;20517;-75
2024/02/16 10:14:05;;;;;;;10.02;7.03;;;13.40;99.90;;;;;;4967740;28;20039;-77
2024/02/16 10:16:33;;;;;;;11.05;8.15;;;13.50;99.90;;;;;;4937657;28;21224;-77
2024/02/16 10:19:07;;;;;;;12.95;9.30;;;13.50;99.90;;;;;;4951740;28;20502;-76
2024/02/16 10:21:33;;;;;;;12.45;9.55;;;13.50;99.90;;;;;;4939521;28;20050;-76
2024/02/16 10:24:01;;;;;;;10.90;8.02;;;13.60;99.90;;;;;;4937658;28;20053;-75
2024/02/16 10:26:31;;;;;;;11.85;7.43;;;13.60;99.90;;;;;;4970071;28;20355;-75
2024/02/16 10:28:58;;;;;;;15.10;8.77;;;13.70;99.90;;;;;;4952820;28;20283;-76
2024/02/16 10:31:29;;;;;;;13.02;8.07;;;13.70;99.90;;;;;;4938312;28;20043;-75
2024/02/16 10:34:06;;;;;;;10.68;8.20;;;13.70;99.90;;;;;;4985829;28;20047;-74
2024/02/16 10:36:34;;;;;;;8.88;7.05;;;13.70;99.90;;;;;;4969622;28;20050;-79
2024/02/16 10:39:05;;;;;;;11.65;7.85;;;13.60;99.90;;;;;;4936169;28;20426;-78
2024/02/16 10:41:41;;;;;;;9.93;6.32;;;13.60;99.90;;;;;;4949673;28;20050;-77
2024/02/16 10:44:08;;;;;;;10.85;7.68;;;13.50;99.90;;;;;;4967684;28;20490;-78
2024/02/16 10:46:35;;;;;;;11.40;7.40;;;13.50;99.90;;;;;;4953771;28;20451;-73
2024/02/16 10:49:06;;;;;;;12.27;7.60;;;13.40;99.90;;;;;;4952826;28;20054;-73
2024/02/16 10:51:47;;;;;;;12.63;8.43;;;13.50;99.90;;;;;;4932887;28;20050;-78
2024/02/16 10:54:18;;;;;;;13.30;8.40;;;13.40;99.90;;;;;;4951710;28;20514;-75
2024/02/16 10:56:45;;;;;;;9.70;7.43;;;13.40;99.90;;;;;;4951299;28;20536;-76
2024/02/16 10:59:11;;;;;;;11.55;8.55;;;13.40;99.90;;;;;;4949902;28;20750;-75
2024/02/16 11:01:39;;;;;;;11.07;7.13;;;13.30;99.90;;;;;;4936271;28;20042;-76
2024/02/16 11:04:09;;;;;;;11.15;7.85;;;13.30;99.90;;;;;;4964207;28;20038;-76
2024/02/16 11:06:51;;;;;;;10.95;7.47;;;13.30;99.90;;;;;;4985739;28;20039;-75
2024/02/16 11:09:35;;;;;;;12.23;7.30;;;13.30;99.90;;;;;;4951635;28;20399;-76
2024/02/16 11:12:03;;;;;;;13.10;9.23;;;13.30;99.90;;;;;;4936338;28;20493;-75
2024/02/16 11:14:46;;;;;;;12.43;8.05;;;13.20;99.90;;;;;;4935647;28;20047;-79
2024/02/16 11:17:14;;;;;;;11.52;8.35;;;13.20;99.90;;;;;;4968065;28;20047;-76
2024/02/16 11:19:42;;;;;;;12.68;9.00;;;13.10;99.90;;;;;;4966578;28;20042;-77
2024/02/16 11:22:09;;;;;;;11.85;9.55;;;13.10;99.90;;;;;;4967727;28;20031;-78
2024/02/16 11:24:36;;;;;;;16.35;10.90;;;13.00;99.90;;;;;;4934890;28;20042;-78
2024/02/16 11:27:05;;;;;;;19.67;12.65;;;12.90;99.90;;;;;;4952463;28;20054;-75
2024/02/16 11:29:35;;;;;;;13.38;10.07;;;12.90;99.90;;;;;;4981792;28;20039;-79
2024/02/16 11:32:06;;;;;;;12.82;11.32;;;12.80;99.90;;;;;;4964556;28;20023;-74
2024/02/16 11:34:33;;;;;;;14.68;10.55;;;12.80;99.90;;;;;;4935472;28;20035;-77
2024/02/16 11:37:02;;;;;;;16.40;10.48;;;12.70;99.90;;;;;;4982863;28;20050;-75
2024/02/16 11:39:32;;;;;;;16.33;10.98;;;12.70;99.90;;;;;;4967050;28;20039;-75
2024/02/16 11:42:12;;;;;;;15.10;12.15;;;12.70;99.90;;;;;;4936775;28;20031;-75
2024/02/16 11:44:49;;;;;;;14.30;11.75;;;12.60;99.90;;;;;;4966718;28;20035;-76
2024/02/16 11:47:20;;;;;;;18.27;13.02;;;12.60;99.90;;;;;;4936534;28;20035;-76
2024/02/16 11:49:46;;;;;;;12.50;10.70;;;12.50;99.90;;;;;;4966030;28;20467;-76
2024/02/16 11:52:14;;;;;;;20.88;16.08;;;12.50;99.90;;;;;;4937044;28;20027;-76
2024/02/16 11:54:44;;;;;;;17.88;14.35;;;12.50;99.90;;;;;;4951255;28;20641;-78
2024/02/16 11:57:10;;;;;;;18.42;15.52;;;12.50;99.90;;;;;;4983872;28;20503;-77
2024/02/16 11:59:37;;;;;;;20.63;15.90;;;12.50;99.90;;;;;;4967830;28;20042;-77
2024/02/16 12:02:03;;;;;;;22.27;18.30;;;12.50;99.90;;;;;;4948977;28;20482;-77
2024/02/16 12:04:30;;;;;;;21.10;17.42;;;12.50;99.90;;;;;;4968487;28;20452;-77
2024/02/16 12:06:58;;;;;;;20.75;16.50;;;12.40;99.90;;;;;;4968274;28;20460;-78
2024/02/16 12:09:25;;;;;;;26.58;19.55;;;12.40;99.90;;;;;;4952640;28;20054;-77
2024/02/16 12:11:55;;;;;;;21.35;17.48;;;12.50;99.90;;;;;;4952142;28;20405;-76
2024/02/16 12:14:23;;;;;;;20.50;18.00;;;12.50;99.90;;;;;;4967926;28;20051;-78
2024/02/16 12:16:57;;;;;;;19.92;16.48;;;12.50;99.90;;;;;;4968257;28;20031;-77
2024/02/16 12:19:24;;;;;;;19.90;16.88;;;12.50;99.90;;;;;;4968130;28;20055;-77
2024/02/16 12:21:57;;;;;;;17.95;15.63;;;12.50;99.90;;;;;;4949816;28;20398;-74
2024/02/16 12:24:24;;;;;;;20.42;17.77;;;12.50;99.90;;;;;;4967140;28;20531;-74
2024/02/16 12:26:50;;;;;;;22.13;19.10;;;12.50;99.90;;;;;;4967102;28;20056;-76
2024/02/16 12:29:17;;;;;;;22.92;18.48;;;12.60;99.90;;;;;;4965301;28;20031;-75
2024/02/16 12:31:45;;;;;;;22.27;18.98;;;12.60;99.90;;;;;;4934191;28;20050;-77
2024/02/16 12:34:12;;;;;;;21.67;17.25;;;12.60;99.90;;;;;;4934772;28;20035;-77
2024/02/16 12:36:42;;;;;;;19.65;17.55;;;12.50;99.90;;;;;;4967414;28;20031;-76
2024/02/16 12:39:12;;;;;;;18.58;15.98;;;12.50;99.90;;;;;;4951383;28;20047;-76
2024/02/16 12:41:39;;;;;;;19.70;17.30;;;12.50;99.90;;;;;;4952525;28;20054;-76
2024/02/16 12:44:05;;;;;;;24.13;20.77;;;12.50;99.90;;;;;;4966489;28;20030;-75
2024/02/16 12:46:32;;;;;;;18.30;16.48;;;12.50;99.90;;;;;;4967675;28;20039;-77